< < Back
Terminal Aerodrome Forecast


Current Version              Previous Versions:   1  2  3  4  5  6  7  8  9  

Terminal Aerodrome Forecast

727
FTUS42 KGSP 041739
TAFHKY
TAF
KHKY 041739Z 0418/0518 27008KT P6SM FEW060
     FM042300 26004KT P6SM SCT070
     FM050100 24004KT P6SM BKN070
     FM050500 32004KT P6SM BKN060
     FM051300 32010G17KT P6SM SCT070=

Latest METAR

176
SAUS70 KWBC 052000 RRD
MTRHKY
METAR KHKY 051953Z AUTO 33011G20KT 10SM BKN065 16/02 A2963 RMK AO2
SLP020 T01610017


USA.gov is the U.S. government's official web portal to all federal, state and local government web resources and services.